createdAt,value
2023-04-07T00:01:23.119Z,76.03
2023-04-07T00:03:52.178Z,75.38
2023-04-07T00:06:21.642Z,75.49
2023-04-07T00:08:50.405Z,75.98
2023-04-07T00:11:21.241Z,76.33
2023-04-07T00:13:49.901Z,75.62
2023-04-07T00:16:21.116Z,75.68
2023-04-07T00:18:50.110Z,75.97
2023-04-07T00:21:21.050Z,75.61
2023-04-07T00:23:49.792Z,76.24
2023-04-07T00:26:20.609Z,76.29
2023-04-07T00:28:50.078Z,75.59
2023-04-07T00:31:21.224Z,76.58
2023-04-07T00:33:50.005Z,76.03
2023-04-07T00:36:21.678Z,76.69
2023-04-07T00:38:50.480Z,76.22
2023-04-07T00:41:20.533Z,75.91
2023-04-07T00:43:50.779Z,76.76
2023-04-07T00:46:22.323Z,76.45
2023-04-07T00:48:51.377Z,76.71
2023-04-07T00:51:22.421Z,76.04
2023-04-07T00:53:51.327Z,76.15
2023-04-07T00:56:22.570Z,76.74
2023-04-07T00:58:51.781Z,76.21
2023-04-07T01:01:26.371Z,76.63
2023-04-07T01:04:01.597Z,76.25
2023-04-07T01:06:35.298Z,76.33
2023-04-07T01:09:11.147Z,76.97
2023-04-07T01:11:44.450Z,75.91
2023-04-07T01:14:22.531Z,75.98
2023-04-07T01:17:03.577Z,77.04
2023-04-07T01:19:37.142Z,76.52
2023-04-07T01:22:12.624Z,76.67
2023-04-07T01:25:06.550Z,76.44
2023-04-07T01:27:43.618Z,76.56
2023-04-07T01:30:15.995Z,76.13
2023-04-07T01:32:50.351Z,76.26
2023-04-07T01:35:22.185Z,76.68
2023-04-07T01:37:52.681Z,77.07
2023-04-07T01:40:22.630Z,76.25
2023-04-07T01:42:52.978Z,76.49
2023-04-07T01:45:23.137Z,77.15
2023-04-07T01:47:53.354Z,76.91
2023-04-07T01:50:23.901Z,76.29
2023-04-07T01:52:53.919Z,76.95
2023-04-07T01:55:24.891Z,77.31
2023-04-07T01:58:06.176Z,76.46
2023-04-07T02:00:36.350Z,76.92
2023-04-07T02:03:20.370Z,76.65
2023-04-07T02:05:54.673Z,77.23
2023-04-07T02:08:30.054Z,76.90
2023-04-07T02:11:03.944Z,77.28
2023-04-07T02:13:44.258Z,77.33
2023-04-07T02:16:17.388Z,76.63
2023-04-07T02:18:48.280Z,76.64
2023-04-07T02:21:19.910Z,77.15
2023-04-07T02:23:48.770Z,77.55
2023-04-07T02:26:19.545Z,77.09
2023-04-07T02:28:48.441Z,77.30
2023-04-07T02:31:21.736Z,77.06
2023-04-07T02:33:50.552Z,76.80
2023-04-07T02:36:22.481Z,77.30
2023-04-07T02:38:51.223Z,77.55
2023-04-07T02:41:20.922Z,77.52
2023-04-07T02:43:49.693Z,77.19
2023-04-07T02:46:19.762Z,77.63
2023-04-07T02:48:48.591Z,76.77
2023-04-07T02:51:17.291Z,76.73
2023-04-07T02:53:48.262Z,77.11
2023-04-07T02:56:19.196Z,76.70
2023-04-07T02:58:47.974Z,77.42
2023-04-07T03:01:19.053Z,77.38
2023-04-07T03:03:48.139Z,76.69
2023-04-07T03:06:21.237Z,77.59
2023-04-07T03:09:13.588Z,77.28
2023-04-07T03:11:42.627Z,77.71
2023-04-07T03:14:12.051Z,76.87
2023-04-07T03:16:47.402Z,76.95
2023-04-07T03:19:16.879Z,77.37
2023-04-07T03:21:48.452Z,77.72
2023-04-07T03:24:20.150Z,77.54
2023-04-07T03:26:48.875Z,77.79
2023-04-07T03:29:42.343Z,77.38
2023-04-07T03:32:12.553Z,77.79
2023-04-07T03:34:41.858Z,77.45
2023-04-07T03:37:13.219Z,77.19
2023-04-07T03:39:43.819Z,77.95
2023-04-07T03:42:43.184Z,76.98
2023-04-07T03:45:13.629Z,77.50
2023-04-07T03:47:48.689Z,77.22
2023-04-07T03:50:19.035Z,77.75
2023-04-07T03:53:05.142Z,77.50
2023-04-07T03:55:34.552Z,78.03
2023-04-07T03:58:10.027Z,77.71
2023-04-07T04:00:40.193Z,77.31
2023-04-07T04:03:11.303Z,77.56
2023-04-07T04:05:48.454Z,77.28
2023-04-07T04:08:21.576Z,77.73
2023-04-07T04:10:50.681Z,77.87
2023-04-07T04:13:20.117Z,77.61
2023-04-07T04:15:49.327Z,77.92
2023-04-07T04:18:21.696Z,78.09
2023-04-07T04:20:50.490Z,78.06
2023-04-07T04:23:20.053Z,77.80
2023-04-07T04:25:50.089Z,77.64
2023-04-07T04:28:20.293Z,77.75
2023-04-07T04:30:49.124Z,77.94
2023-04-07T04:33:20.962Z,77.79
2023-04-07T04:35:56.693Z,77.51
2023-04-07T04:38:26.969Z,77.56
2023-04-07T04:41:23.654Z,77.77
2023-04-07T04:43:52.997Z,77.80
2023-04-07T04:46:28.391Z,78.14
2023-04-07T04:48:57.564Z,78.38
2023-04-07T04:51:27.512Z,77.67
2023-04-07T04:54:06.477Z,78.01
2023-04-07T04:56:36.926Z,78.05
2023-04-07T04:59:06.275Z,78.16
2023-04-07T05:01:41.788Z,77.73
2023-04-07T05:04:13.768Z,78.00
2023-04-07T05:06:47.633Z,78.41
2023-04-07T05:09:20.583Z,78.32
2023-04-07T05:11:49.898Z,78.24
2023-04-07T05:14:21.941Z,78.24
2023-04-07T05:16:56.457Z,78.63
2023-04-07T05:19:29.143Z,78.63
2023-04-07T05:22:02.544Z,78.49
2023-04-07T05:24:34.386Z,77.80
2023-04-07T05:27:03.949Z,78.37
2023-04-07T05:29:34.653Z,78.19
2023-04-07T05:32:06.156Z,78.64
2023-04-07T05:34:35.133Z,78.57
2023-04-07T05:37:05.281Z,78.61
2023-04-07T05:39:33.960Z,78.43
2023-04-07T05:42:06.336Z,78.80
2023-04-07T05:44:36.030Z,78.20
2023-04-07T05:47:08.621Z,78.62
2023-04-07T05:49:40.421Z,78.35
2023-04-07T05:52:09.772Z,78.73
2023-04-07T05:54:44.859Z,78.38
2023-04-07T05:57:14.435Z,78.74
2023-04-07T05:59:46.783Z,78.24
2023-04-07T06:02:15.903Z,78.68
2023-04-07T06:04:47.867Z,78.70
2023-04-07T06:07:20.988Z,78.53
2023-04-07T06:09:49.982Z,78.45
2023-04-07T06:12:21.235Z,78.78
2023-04-07T06:14:54.043Z,78.40
2023-04-07T06:17:24.113Z,78.73
2023-04-07T06:19:52.919Z,78.17
2023-04-07T06:22:21.873Z,78.68
2023-04-07T06:24:50.605Z,78.54
2023-04-07T06:27:21.131Z,78.53
2023-04-07T06:29:50.034Z,78.28
2023-04-07T06:32:21.645Z,78.49
2023-04-07T06:34:50.573Z,78.66
2023-04-07T06:37:20.494Z,78.56
2023-04-07T06:39:49.548Z,78.69
2023-04-07T06:42:19.133Z,78.61
2023-04-07T06:44:54.435Z,79.01
2023-04-07T06:47:23.650Z,78.45
2023-04-07T06:49:52.423Z,78.96
2023-04-07T06:52:22.100Z,78.75
2023-04-07T06:54:51.121Z,78.60
2023-04-07T06:57:21.569Z,78.54
2023-04-07T06:59:50.667Z,78.40
2023-04-07T07:02:21.076Z,78.51
2023-04-07T07:04:51.034Z,78.55
2023-04-07T07:07:22.533Z,78.69
2023-04-07T07:09:51.388Z,79.17
2023-04-07T07:12:22.816Z,78.64
2023-04-07T07:14:51.769Z,78.61
2023-04-07T07:17:23.139Z,78.84
2023-04-07T07:19:51.974Z,78.64
2023-04-07T07:22:23.361Z,78.84
2023-04-07T07:24:52.705Z,78.89
2023-04-07T07:27:23.027Z,78.73
2023-04-07T07:29:51.837Z,78.71
2023-04-07T07:32:23.006Z,78.84
2023-04-07T07:34:51.856Z,78.68
2023-04-07T07:37:21.952Z,78.47
2023-04-07T07:39:52.475Z,78.63
2023-04-07T07:42:21.550Z,78.81
2023-04-07T07:44:50.450Z,78.75
2023-04-07T07:47:20.331Z,78.65
2023-04-07T07:49:50.172Z,78.68
2023-04-07T07:52:21.418Z,78.44
2023-04-07T07:54:51.253Z,78.50
2023-04-07T07:57:22.997Z,78.87
2023-04-07T07:59:51.884Z,78.56
2023-04-07T08:02:30.392Z,78.68
2023-04-07T08:05:00.731Z,78.93
2023-04-07T08:07:30.229Z,78.60
2023-04-07T08:10:01.559Z,78.45
2023-04-07T08:12:30.612Z,78.62
2023-04-07T08:14:59.923Z,77.87
2023-04-07T08:17:28.774Z,78.56
2023-04-07T08:19:57.768Z,78.24
2023-04-07T08:22:26.771Z,78.60
2023-04-07T08:24:55.550Z,78.81
2023-04-07T08:27:24.666Z,78.63
2023-04-07T08:30:02.004Z,78.18
2023-04-07T08:32:37.247Z,78.16
2023-04-07T08:35:06.807Z,77.92
2023-04-07T08:37:40.691Z,78.21
2023-04-07T08:40:11.752Z,77.67
2023-04-07T08:42:43.678Z,77.66
2023-04-07T08:45:13.842Z,78.33
2023-04-07T08:47:44.412Z,77.87
2023-04-07T08:50:20.309Z,78.54
2023-04-07T08:52:55.251Z,78.16
2023-04-07T08:55:27.421Z,77.86
2023-04-07T08:58:00.819Z,78.49
2023-04-07T09:00:32.160Z,77.58
2023-04-07T09:03:05.136Z,78.37
2023-04-07T09:05:34.769Z,77.64
2023-04-07T09:08:04.164Z,77.66
2023-04-07T09:10:33.146Z,77.71
2023-04-07T09:13:03.348Z,77.77
2023-04-07T09:15:32.296Z,77.80
2023-04-07T09:18:04.593Z,77.93
2023-04-07T09:21:02.142Z,78.52
2023-04-07T09:23:34.450Z,77.47
2023-04-07T09:26:29.160Z,77.77
2023-04-07T09:29:01.040Z,77.50
2023-04-07T09:31:45.553Z,78.00
2023-04-07T09:34:24.516Z,78.31
2023-04-07T09:36:56.609Z,77.41
2023-04-07T09:39:26.008Z,77.68
2023-04-07T09:41:55.089Z,77.76
2023-04-07T09:44:25.014Z,78.43
2023-04-07T09:46:55.938Z,78.34
2023-04-07T09:49:30.453Z,77.82
2023-04-07T09:52:04.638Z,78.35
2023-04-07T09:54:37.041Z,78.07
2023-04-07T09:57:08.481Z,77.85
2023-04-07T09:59:39.565Z,77.69
2023-04-07T10:02:09.267Z,78.12
2023-04-07T10:04:40.570Z,78.48
2023-04-07T10:07:09.841Z,78.33
2023-04-07T10:09:38.678Z,78.51
2023-04-07T10:12:08.115Z,78.37
2023-04-07T10:14:40.372Z,77.82
2023-04-07T10:17:09.933Z,78.00
2023-04-07T10:19:39.330Z,78.07
2023-04-07T10:22:08.549Z,78.64
2023-04-07T10:24:54.922Z,78.44
2023-04-07T10:27:29.498Z,78.29
2023-04-07T10:30:05.253Z,77.60
2023-04-07T10:32:47.625Z,78.50
2023-04-07T10:35:19.593Z,77.77
2023-04-07T10:38:27.446Z,77.77
2023-04-07T10:40:57.678Z,78.13
2023-04-07T10:43:41.589Z,77.50
2023-04-07T10:46:17.193Z,78.57
2023-04-07T10:49:12.869Z,78.13
2023-04-07T10:51:41.890Z,77.42
2023-04-07T10:54:21.693Z,77.44
2023-04-07T10:57:12.602Z,78.34
2023-04-07T11:00:04.051Z,78.60
2023-04-07T11:02:43.042Z,78.05
2023-04-07T11:05:23.997Z,77.82
2023-04-07T11:08:02.128Z,78.22
2023-04-07T11:10:31.129Z,78.38
2023-04-07T11:13:02.939Z,77.41
2023-04-07T11:15:33.540Z,78.64
2023-04-07T11:18:17.488Z,77.95
2023-04-07T11:20:52.643Z,77.69
2023-04-07T11:23:24.953Z,77.48
2023-04-07T11:26:01.570Z,77.26
2023-04-07T11:28:33.648Z,77.93
2023-04-07T11:31:02.531Z,78.00
2023-04-07T11:33:34.610Z,77.50
2023-04-07T11:36:04.546Z,77.71
2023-04-07T11:38:38.873Z,77.39
2023-04-07T11:41:18.730Z,77.75
2023-04-07T11:44:08.006Z,78.37
2023-04-07T11:46:39.306Z,77.32
2023-04-07T11:49:16.184Z,77.80
2023-04-07T11:51:46.601Z,78.20
2023-04-07T11:54:15.880Z,77.13
2023-04-07T11:56:47.042Z,77.76
2023-04-07T11:59:26.456Z,78.38
2023-04-07T12:02:00.044Z,77.42
2023-04-07T12:04:29.817Z,77.10
2023-04-07T12:07:09.169Z,78.19
2023-04-07T12:09:38.665Z,77.19
2023-04-07T12:12:10.056Z,78.09
2023-04-07T12:14:41.393Z,78.05
2023-04-07T12:17:27.814Z,77.54
2023-04-07T12:20:00.513Z,78.20
2023-04-07T12:22:29.792Z,77.84
2023-04-07T12:24:58.669Z,77.65
2023-04-07T12:27:41.690Z,77.18
2023-04-07T12:30:13.532Z,77.73
2023-04-07T12:32:42.687Z,77.75
2023-04-07T12:35:11.647Z,77.92
2023-04-07T12:37:43.724Z,78.30
2023-04-07T12:40:17.330Z,77.93
2023-04-07T12:42:46.665Z,77.42
2023-04-07T12:45:15.813Z,78.33
2023-04-07T12:47:46.264Z,77.57
2023-04-07T12:50:26.353Z,77.22
2023-04-07T12:52:55.329Z,77.60
2023-04-07T12:55:24.546Z,77.66
2023-04-07T12:57:55.629Z,78.30
2023-04-07T13:00:26.736Z,77.25
2023-04-07T13:02:56.048Z,77.09
2023-04-07T13:05:27.870Z,77.61
2023-04-07T13:07:56.826Z,77.37
2023-04-07T13:10:25.922Z,76.98
2023-04-07T13:12:55.290Z,77.21
2023-04-07T13:15:24.214Z,76.72
2023-04-07T13:17:53.675Z,76.44
2023-04-07T13:20:23.122Z,76.48
2023-04-07T13:23:03.671Z,77.13
2023-04-07T13:25:37.288Z,76.60
2023-04-07T13:28:06.788Z,76.53
2023-04-07T13:30:35.821Z,76.21
2023-04-07T13:33:06.868Z,76.06
2023-04-07T13:35:36.018Z,76.12
2023-04-07T13:38:09.021Z,76.01
2023-04-07T13:40:38.199Z,75.76
2023-04-07T13:43:07.383Z,76.00
2023-04-07T13:45:38.806Z,76.38
2023-04-07T13:48:07.878Z,76.08
2023-04-07T13:50:39.114Z,75.53
2023-04-07T13:53:08.177Z,75.99
2023-04-07T13:55:37.264Z,75.19
2023-04-07T13:58:06.942Z,75.58
2023-04-07T14:00:39.703Z,75.01
2023-04-07T14:03:13.116Z,75.24
2023-04-07T14:05:42.189Z,75.33
2023-04-07T14:08:11.080Z,75.30
2023-04-07T14:10:43.007Z,75.39
2023-04-07T14:13:11.859Z,74.39
2023-04-07T14:15:42.184Z,74.77
2023-04-07T14:18:14.021Z,74.58
2023-04-07T14:20:43.229Z,74.52
2023-04-07T14:23:14.022Z,74.28
2023-04-07T14:25:45.722Z,74.14
2023-04-07T14:28:14.732Z,74.19
2023-04-07T14:30:46.910Z,74.18
2023-04-07T14:33:19.887Z,74.23
2023-04-07T14:35:52.490Z,73.97
2023-04-07T14:38:25.722Z,73.88
2023-04-07T14:40:54.725Z,73.69
2023-04-07T14:43:24.336Z,74.17
2023-04-07T14:45:55.706Z,73.62
2023-04-07T14:48:24.560Z,73.84
2023-04-07T14:51:02.503Z,73.23
2023-04-07T14:53:43.285Z,73.01
2023-04-07T14:56:27.716Z,73.38
2023-04-07T14:58:56.814Z,73.26
2023-04-07T15:01:33.335Z,73.21
2023-04-07T15:04:02.620Z,74.16
2023-04-07T15:06:31.767Z,73.21
2023-04-07T15:09:00.584Z,74.13
2023-04-07T15:11:29.753Z,73.92
2023-04-07T15:14:00.220Z,73.21
2023-04-07T15:16:30.246Z,73.58
2023-04-07T15:19:05.540Z,73.42
2023-04-07T15:21:34.330Z,73.16
2023-04-07T15:24:05.370Z,73.40
2023-04-07T15:26:34.638Z,73.10
2023-04-07T15:29:03.865Z,73.79
2023-04-07T15:31:32.972Z,73.44
2023-04-07T15:34:01.960Z,73.64
2023-04-07T15:36:31.115Z,73.18
2023-04-07T15:39:04.267Z,73.11
2023-04-07T15:41:34.333Z,72.90
2023-04-07T15:44:04.080Z,72.61
2023-04-07T15:46:33.140Z,72.55
2023-04-07T15:49:02.029Z,73.11
2023-04-07T15:51:50.785Z,73.16
2023-04-07T15:54:24.675Z,72.82
2023-04-07T15:56:53.838Z,73.08
2023-04-07T15:59:26.301Z,72.74
2023-04-07T16:01:55.336Z,73.46
2023-04-07T16:04:25.960Z,73.04
2023-04-07T16:06:55.996Z,72.54
2023-04-07T16:09:25.258Z,72.51
2023-04-07T16:11:55.236Z,73.04
2023-04-07T16:14:28.314Z,72.42
2023-04-07T16:16:59.151Z,72.68
2023-04-07T16:19:30.967Z,72.66
2023-04-07T16:22:00.160Z,73.11
2023-04-07T16:24:29.397Z,72.46
2023-04-07T16:27:03.569Z,72.57
2023-04-07T16:29:35.947Z,72.52
2023-04-07T16:32:05.142Z,72.44
2023-04-07T16:34:34.875Z,72.64
2023-04-07T16:37:05.125Z,73.02
2023-04-07T16:39:34.329Z,72.04
2023-04-07T16:42:07.075Z,72.24
2023-04-07T16:44:38.299Z,71.96
2023-04-07T16:47:08.210Z,72.55
2023-04-07T16:49:43.201Z,71.91
2023-04-07T16:52:12.401Z,71.99
2023-04-07T16:54:41.466Z,71.60
2023-04-07T16:57:11.610Z,72.11
2023-04-07T16:59:43.469Z,72.07
2023-04-07T17:02:15.724Z,71.76
2023-04-07T17:04:47.555Z,71.99
2023-04-07T17:07:17.260Z,71.52
2023-04-07T17:09:48.641Z,71.43
2023-04-07T17:12:17.841Z,71.58
2023-04-07T17:14:48.935Z,71.66
2023-04-07T17:17:17.870Z,71.31
2023-04-07T17:19:52.666Z,72.02
2023-04-07T17:22:24.447Z,71.75
2023-04-07T17:24:54.300Z,71.58
2023-04-07T17:27:27.651Z,71.52
2023-04-07T17:29:59.375Z,71.77
2023-04-07T17:32:31.205Z,71.51
2023-04-07T17:35:05.372Z,71.53
2023-04-07T17:37:34.308Z,71.69
2023-04-07T17:40:05.615Z,71.76
2023-04-07T17:45:18.386Z,71.76
2023-04-07T17:50:34.973Z,71.96
2023-04-07T17:53:03.774Z,72.00
2023-04-07T17:55:33.028Z,71.78
2023-04-07T17:58:01.949Z,71.81
2023-04-07T18:00:31.349Z,71.91
2023-04-07T18:03:03.902Z,71.87
2023-04-07T18:05:33.393Z,71.69
2023-04-07T18:08:05.267Z,72.39
2023-04-07T18:10:34.702Z,71.95
2023-04-07T18:13:05.171Z,72.09
2023-04-07T18:15:34.444Z,72.29
2023-04-07T18:18:03.318Z,72.13
2023-04-07T18:20:36.241Z,72.17
2023-04-07T18:23:05.723Z,72.07
2023-04-07T18:25:36.096Z,72.24
2023-04-07T18:28:06.160Z,72.03
2023-04-07T18:30:37.094Z,72.10
2023-04-07T18:33:06.366Z,72.49
2023-04-07T18:35:35.722Z,72.24
2023-04-07T18:38:04.925Z,72.21
2023-04-07T18:40:34.823Z,72.50
2023-04-07T18:43:04.191Z,72.07
2023-04-07T18:45:36.332Z,72.05
2023-04-07T18:48:05.984Z,72.37
2023-04-07T18:50:34.865Z,72.40
2023-04-07T18:53:03.794Z,72.26
2023-04-07T18:55:32.651Z,72.15
2023-04-07T18:58:03.365Z,72.43
2023-04-07T19:00:32.466Z,72.31
2023-04-07T19:03:04.078Z,72.23
2023-04-07T19:05:36.824Z,72.44
2023-04-07T19:08:07.069Z,72.57
2023-04-07T19:10:38.828Z,72.53
2023-04-07T19:13:07.843Z,72.56
2023-04-07T19:15:38.814Z,72.28
2023-04-07T19:18:07.684Z,72.51
2023-04-07T19:20:36.661Z,72.54
2023-04-07T19:23:05.660Z,72.68
2023-04-07T19:25:37.432Z,72.78
2023-04-07T19:28:06.922Z,72.55
2023-04-07T19:30:36.059Z,72.54
2023-04-07T19:33:05.809Z,72.69
2023-04-07T19:35:37.230Z,72.88
2023-04-07T19:38:06.798Z,72.66
2023-04-07T19:40:37.036Z,72.45
2023-04-07T19:43:08.513Z,72.87
2023-04-07T19:45:39.724Z,72.84
2023-04-07T19:48:09.534Z,72.82
2023-04-07T19:50:47.712Z,72.86
2023-04-07T19:53:17.673Z,72.67
2023-04-07T19:55:58.388Z,72.76
2023-04-07T19:58:28.475Z,72.96
2023-04-07T20:03:42.960Z,72.76
2023-04-07T20:06:20.558Z,73.08
2023-04-07T20:08:51.647Z,72.76
2023-04-07T20:11:21.571Z,72.67
2023-04-07T20:13:53.597Z,72.71
2023-04-07T20:16:30.720Z,72.86
2023-04-07T20:19:02.657Z,72.65
2023-04-07T20:21:32.394Z,72.56
2023-04-07T20:24:02.184Z,72.72
2023-04-07T20:26:31.443Z,72.68
2023-04-07T20:29:05.431Z,72.43
2023-04-07T20:31:33.798Z,72.62
2023-04-07T20:34:04.453Z,72.54
2023-04-07T20:36:33.352Z,72.51
2023-04-07T20:39:03.570Z,72.50
2023-04-07T20:41:33.441Z,72.61
2023-04-07T20:44:02.847Z,72.39
2023-04-07T20:46:34.856Z,72.36
2023-04-07T20:49:08.410Z,72.28
2023-04-07T20:51:38.521Z,72.53
2023-04-07T20:54:08.404Z,72.23
2023-04-07T20:56:42.457Z,72.48
2023-04-07T20:59:11.320Z,72.34
2023-04-07T21:01:40.493Z,72.35
2023-04-07T21:04:12.307Z,72.80
2023-04-07T21:06:43.497Z,72.16
2023-04-07T21:09:12.344Z,72.23
2023-04-07T21:11:41.135Z,72.38
2023-04-07T21:14:09.943Z,72.54
2023-04-07T21:16:38.817Z,72.57
2023-04-07T21:19:07.856Z,72.10
2023-04-07T21:21:37.918Z,72.19
2023-04-07T21:24:09.831Z,72.26
2023-04-07T21:26:39.805Z,72.50
2023-04-07T21:29:08.653Z,72.31
2023-04-07T21:31:37.672Z,72.28
2023-04-07T21:34:06.773Z,72.42
2023-04-07T21:36:36.684Z,72.27
2023-04-07T21:39:06.837Z,72.15
2023-04-07T21:41:36.748Z,72.40
2023-04-07T21:44:12.082Z,72.60
2023-04-07T21:46:43.479Z,72.60
2023-04-07T21:49:23.214Z,72.67
2023-04-07T21:51:56.401Z,72.31
2023-04-07T21:54:26.837Z,72.64
2023-04-07T21:56:58.860Z,72.26
2023-04-07T21:59:32.132Z,72.44
2023-04-07T22:02:06.636Z,72.51
2023-04-07T22:04:36.851Z,72.24
2023-04-07T22:07:08.421Z,72.25
2023-04-07T22:09:37.184Z,72.20
2023-04-07T22:12:06.000Z,72.18
2023-04-07T22:14:38.535Z,72.74
2023-04-07T22:17:07.702Z,72.47
2023-04-07T22:19:36.556Z,72.81
2023-04-07T22:22:07.750Z,72.44
2023-04-07T22:24:36.721Z,72.10
2023-04-07T22:27:05.512Z,72.30
2023-04-07T22:29:34.309Z,72.44
2023-04-07T22:32:04.481Z,72.41
2023-04-07T22:34:33.477Z,72.63
2023-04-07T22:37:02.247Z,72.55
2023-04-07T22:39:32.667Z,72.63
2023-04-07T22:42:02.212Z,71.99
2023-04-07T22:44:31.202Z,72.20
2023-04-07T22:47:00.286Z,72.60
2023-04-07T22:49:32.275Z,72.30
2023-04-07T22:52:02.409Z,72.11
2023-04-07T22:54:31.501Z,72.27
2023-04-07T22:57:03.624Z,72.62
2023-04-07T22:59:32.397Z,72.12
2023-04-07T23:02:02.574Z,72.41
2023-04-07T23:04:32.925Z,72.36
2023-04-07T23:07:03.409Z,72.37
2023-04-07T23:09:33.447Z,72.60
2023-04-07T23:12:04.049Z,72.08
2023-04-07T23:14:34.702Z,72.23
2023-04-07T23:17:03.747Z,72.29
2023-04-07T23:19:32.759Z,71.83
2023-04-07T23:22:01.694Z,72.44
2023-04-07T23:24:30.488Z,71.95
2023-04-07T23:27:01.499Z,72.23
2023-04-07T23:29:33.615Z,72.48
2023-04-07T23:32:04.310Z,72.53
2023-04-07T23:34:35.547Z,71.93
2023-04-07T23:37:05.776Z,72.60
2023-04-07T23:39:36.328Z,71.92
2023-04-07T23:42:06.248Z,72.42
2023-04-07T23:44:37.717Z,72.00
2023-04-07T23:47:08.733Z,72.18
2023-04-07T23:49:37.872Z,72.11
2023-04-07T23:52:06.571Z,72.01
2023-04-07T23:54:35.354Z,71.86
2023-04-07T23:57:07.008Z,72.43
2023-04-07T23:59:40.671Z,71.98
